createdAt,value
2023-06-30T00:01:29.881Z,4.85
2023-06-30T00:03:56.833Z,4.88
2023-06-30T00:06:23.861Z,5.60
2023-06-30T00:08:51.296Z,5.63
2023-06-30T00:11:21.018Z,5.07
2023-06-30T00:13:47.604Z,5.68
2023-06-30T00:18:40.755Z,5.60
2023-06-30T00:23:33.859Z,5.18
2023-06-30T00:26:00.660Z,5.80
2023-06-30T00:28:27.444Z,6.43
2023-06-30T00:30:55.102Z,5.15
2023-06-30T00:33:24.494Z,5.45
2023-06-30T00:38:17.805Z,5.90
2023-06-30T00:40:44.567Z,5.30
2023-06-30T00:43:11.193Z,5.72
2023-06-30T00:45:38.786Z,5.50
2023-06-30T00:48:05.680Z,5.47
2023-06-30T00:50:32.513Z,5.63
2023-06-30T00:53:00.098Z,5.85
2023-06-30T00:55:27.934Z,5.68
2023-06-30T00:57:54.665Z,6.05
2023-06-30T01:03:11.405Z,6.37
2023-06-30T01:05:46.879Z,5.53
2023-06-30T01:08:21.364Z,6.38
2023-06-30T01:10:49.210Z,5.40
2023-06-30T01:13:17.455Z,6.18
2023-06-30T01:15:46.055Z,6.65
2023-06-30T01:18:14.588Z,5.88
2023-06-30T01:20:41.743Z,5.70
2023-06-30T01:23:40.056Z,6.20
2023-06-30T01:26:07.788Z,6.00
2023-06-30T01:28:35.941Z,6.65
2023-06-30T01:31:07.192Z,6.25
2023-06-30T01:40:12.820Z,5.45
2023-06-30T01:42:41.156Z,6.03
2023-06-30T01:45:10.798Z,6.20
2023-06-30T01:47:37.727Z,5.78
2023-06-30T01:50:05.196Z,6.00
2023-06-30T01:52:31.861Z,6.63
2023-06-30T01:54:58.523Z,6.05
2023-06-30T01:57:25.245Z,5.97
2023-06-30T02:02:18.308Z,6.22
2023-06-30T02:07:11.477Z,5.78
2023-06-30T02:09:47.279Z,5.45
2023-06-30T02:12:14.381Z,6.20
2023-06-30T02:17:09.857Z,5.85
2023-06-30T02:19:36.451Z,6.10
2023-06-30T02:24:29.614Z,6.13
2023-06-30T02:26:56.205Z,6.20
2023-06-30T02:29:23.115Z,6.32
2023-06-30T02:34:16.652Z,6.80
2023-06-30T02:36:43.195Z,6.50
2023-06-30T02:41:37.626Z,6.88
2023-06-30T02:44:04.859Z,6.28
2023-06-30T02:46:31.707Z,6.18
2023-06-30T02:48:58.344Z,7.45
2023-06-30T02:51:25.176Z,7.15
2023-06-30T02:53:51.872Z,6.93
2023-06-30T02:56:18.724Z,6.63
2023-06-30T02:58:45.500Z,6.35
2023-06-30T03:03:40.601Z,6.45
2023-06-30T03:06:08.532Z,6.90
2023-06-30T03:08:37.620Z,6.22
2023-06-30T03:13:30.926Z,6.03
2023-06-30T03:15:58.400Z,6.03
2023-06-30T03:18:25.058Z,6.70
2023-06-30T03:23:19.884Z,6.05
2023-06-30T03:25:46.990Z,6.32
2023-06-30T03:28:13.910Z,6.55
2023-06-30T03:30:40.538Z,6.30
2023-06-30T03:33:07.329Z,6.95
2023-06-30T03:35:33.991Z,6.25
2023-06-30T03:40:27.698Z,6.88
2023-06-30T03:42:54.485Z,6.20
2023-06-30T03:47:48.873Z,6.90
2023-06-30T03:50:17.105Z,6.53
2023-06-30T03:55:10.170Z,6.28
2023-06-30T04:00:04.017Z,6.30
2023-06-30T04:02:39.706Z,6.95
2023-06-30T04:05:06.640Z,6.60
2023-06-30T04:07:36.751Z,6.53
2023-06-30T04:10:03.561Z,6.93
2023-06-30T04:12:30.045Z,7.43
2023-06-30T04:14:56.926Z,6.95
2023-06-30T04:17:23.468Z,6.18
2023-06-30T04:22:16.433Z,6.55
2023-06-30T04:27:09.432Z,6.85
2023-06-30T04:32:04.295Z,6.65
2023-06-30T04:34:31.001Z,7.07
2023-06-30T04:39:24.624Z,6.65
2023-06-30T04:44:17.906Z,6.05
2023-06-30T04:49:11.789Z,8.35
2023-06-30T04:51:38.335Z,8.25
2023-06-30T04:56:31.252Z,6.82
2023-06-30T05:01:24.284Z,7.60
2023-06-30T05:06:17.525Z,7.47
2023-06-30T05:08:44.032Z,8.23
2023-06-30T05:13:37.813Z,7.05
2023-06-30T05:16:04.687Z,7.78
2023-06-30T05:18:31.385Z,7.30
2023-06-30T05:23:24.996Z,8.85
2023-06-30T05:25:51.701Z,7.40
2023-06-30T05:30:44.633Z,7.00
2023-06-30T05:35:37.631Z,7.78
2023-06-30T05:40:30.615Z,7.22
2023-06-30T05:42:57.686Z,7.45
2023-06-30T05:45:24.220Z,7.68
2023-06-30T05:50:18.254Z,6.50
2023-06-30T05:52:44.882Z,7.28
2023-06-30T05:57:37.825Z,8.18
2023-06-30T06:02:38.641Z,8.50
2023-06-30T06:05:05.763Z,9.10
2023-06-30T06:07:32.750Z,8.32
2023-06-30T06:09:59.312Z,8.77
2023-06-30T06:14:52.321Z,8.32
2023-06-30T06:19:45.200Z,10.18
2023-06-30T06:24:38.145Z,9.63
2023-06-30T06:29:31.687Z,9.60
2023-06-30T06:34:24.580Z,9.52
2023-06-30T06:39:17.492Z,9.95
2023-06-30T06:44:16.727Z,9.45
2023-06-30T06:46:44.486Z,9.30
2023-06-30T06:49:11.327Z,9.32
2023-06-30T06:51:37.843Z,8.52
2023-06-30T06:56:30.819Z,8.98
2023-06-30T07:01:23.802Z,8.50
2023-06-30T07:03:50.588Z,7.65
2023-06-30T07:06:17.747Z,10.15
2023-06-30T07:08:44.311Z,8.40
2023-06-30T07:13:39.414Z,9.65
2023-06-30T07:16:06.716Z,11.85
2023-06-30T07:18:34.953Z,12.00
2023-06-30T07:21:03.185Z,12.38
2023-06-30T07:23:29.767Z,12.93
2023-06-30T07:25:56.324Z,13.20
2023-06-30T07:30:49.824Z,13.30
2023-06-30T07:33:17.963Z,15.60
2023-06-30T07:35:44.706Z,13.82
2023-06-30T07:38:11.504Z,14.23
2023-06-30T07:43:22.953Z,15.55
2023-06-30T07:45:49.802Z,13.77
2023-06-30T07:48:16.645Z,15.45
2023-06-30T07:50:54.666Z,15.80
2023-06-30T07:53:29.781Z,18.33
2023-06-30T07:55:56.296Z,20.35
2023-06-30T08:00:50.250Z,17.20
2023-06-30T08:03:16.872Z,18.88
2023-06-30T08:05:43.611Z,17.05
2023-06-30T08:08:10.210Z,18.70
2023-06-30T08:10:39.083Z,17.50
2023-06-30T08:13:06.506Z,18.92
2023-06-30T08:15:33.016Z,18.35
2023-06-30T08:17:59.679Z,18.33
2023-06-30T08:20:27.148Z,18.08
2023-06-30T08:22:54.754Z,17.45
2023-06-30T08:25:23.444Z,17.70
2023-06-30T08:27:50.367Z,19.23
2023-06-30T08:30:16.968Z,20.50
2023-06-30T08:32:44.218Z,24.10
2023-06-30T08:35:11.208Z,23.88
2023-06-30T08:37:39.092Z,22.45
2023-06-30T08:40:06.695Z,22.73
2023-06-30T08:42:36.844Z,25.25
2023-06-30T08:45:04.514Z,25.17
2023-06-30T08:47:33.421Z,26.92
2023-06-30T08:50:00.791Z,26.77
2023-06-30T08:52:27.875Z,24.33
2023-06-30T08:54:54.487Z,24.52
2023-06-30T08:57:21.958Z,22.92
2023-06-30T08:59:48.746Z,22.88
2023-06-30T09:02:15.592Z,23.15
2023-06-30T09:04:43.162Z,24.70
2023-06-30T09:07:14.134Z,24.70
2023-06-30T09:09:46.504Z,24.60
2023-06-30T09:12:13.946Z,26.30
2023-06-30T09:14:42.115Z,26.13
2023-06-30T09:17:09.122Z,24.58
2023-06-30T09:19:37.091Z,25.55
2023-06-30T09:22:51.069Z,24.70
2023-06-30T09:24:52.611Z,26.23
2023-06-30T09:27:19.305Z,25.02
2023-06-30T09:29:56.185Z,25.63
2023-06-30T09:35:09.287Z,26.23
2023-06-30T09:37:42.814Z,24.92
2023-06-30T09:40:15.373Z,24.50
2023-06-30T09:42:47.895Z,28.83
2023-06-30T09:45:15.019Z,26.20
2023-06-30T09:47:42.626Z,25.42
2023-06-30T09:50:11.058Z,26.33
2023-06-30T09:52:38.629Z,23.95
2023-06-30T09:55:11.900Z,25.17
2023-06-30T09:57:41.133Z,25.52
2023-06-30T10:00:11.638Z,24.63
2023-06-30T10:02:45.409Z,25.00
2023-06-30T10:05:12.324Z,26.70
2023-06-30T10:07:41.391Z,27.13
2023-06-30T10:10:10.941Z,24.67
2023-06-30T10:12:44.088Z,24.52
2023-06-30T10:15:12.129Z,25.27
2023-06-30T10:17:44.483Z,23.20
2023-06-30T10:20:11.736Z,25.10
2023-06-30T10:22:39.054Z,24.35
2023-06-30T10:25:09.232Z,25.48
2023-06-30T10:27:37.311Z,24.40
2023-06-30T10:30:04.370Z,24.45
2023-06-30T10:32:31.114Z,24.83
2023-06-30T10:34:59.619Z,24.08
2023-06-30T10:37:27.563Z,24.63
2023-06-30T10:39:54.324Z,24.88
2023-06-30T10:42:21.990Z,24.35
2023-06-30T10:44:49.182Z,24.83
2023-06-30T10:47:22.364Z,25.85
2023-06-30T10:49:52.726Z,24.15
2023-06-30T10:52:39.249Z,27.75
2023-06-30T10:55:07.432Z,26.77
2023-06-30T10:57:40.497Z,26.65
2023-06-30T11:00:11.222Z,27.30
2023-06-30T11:02:51.315Z,26.60
2023-06-30T11:05:22.583Z,27.00
2023-06-30T11:07:50.991Z,27.98
2023-06-30T11:10:28.861Z,28.83
2023-06-30T11:12:57.553Z,29.10
2023-06-30T11:15:43.018Z,28.17
2023-06-30T11:18:23.978Z,28.33
2023-06-30T11:21:04.791Z,25.98
2023-06-30T11:23:38.597Z,27.38
2023-06-30T11:26:15.785Z,24.67
2023-06-30T11:28:44.004Z,23.23
2023-06-30T11:31:12.828Z,21.63
2023-06-30T11:33:43.190Z,21.98
2023-06-30T11:36:17.239Z,22.10
2023-06-30T11:38:48.234Z,21.83
2023-06-30T11:41:24.855Z,19.15
2023-06-30T11:43:56.683Z,18.10
2023-06-30T11:46:24.176Z,19.33
2023-06-30T11:48:50.781Z,16.63
2023-06-30T11:51:20.826Z,16.50
2023-06-30T11:53:47.896Z,14.55
2023-06-30T11:56:14.416Z,13.52
2023-06-30T12:01:11.125Z,11.32
2023-06-30T12:06:04.187Z,18.90
2023-06-30T12:08:31.929Z,18.83
2023-06-30T12:10:58.715Z,19.85
2023-06-30T12:13:29.176Z,19.63
2023-06-30T12:15:59.629Z,19.92
2023-06-30T12:18:38.777Z,18.27
2023-06-30T12:21:14.066Z,18.10
2023-06-30T12:23:47.274Z,19.00
2023-06-30T12:26:14.583Z,17.65
2023-06-30T12:28:42.640Z,18.45
2023-06-30T12:31:09.207Z,18.42
2023-06-30T12:36:07.100Z,18.42
2023-06-30T12:38:33.658Z,19.17
2023-06-30T12:41:00.226Z,18.00
2023-06-30T12:43:28.280Z,16.95
2023-06-30T12:45:54.930Z,18.40
2023-06-30T12:48:21.469Z,17.48
2023-06-30T12:50:48.205Z,17.38
2023-06-30T12:53:14.863Z,15.95
2023-06-30T12:55:41.404Z,15.88
2023-06-30T12:58:07.913Z,17.33
2023-06-30T13:00:34.520Z,17.95
2023-06-30T13:03:01.065Z,16.70
2023-06-30T13:05:27.695Z,17.15
2023-06-30T13:07:54.514Z,16.75
2023-06-30T13:10:21.067Z,17.98
2023-06-30T13:12:47.569Z,17.95
2023-06-30T13:15:14.154Z,17.17
2023-06-30T13:17:40.798Z,17.50
2023-06-30T13:20:09.081Z,18.70
2023-06-30T13:22:42.572Z,16.50
2023-06-30T13:25:14.720Z,17.05
2023-06-30T13:27:45.440Z,16.52
2023-06-30T13:30:12.302Z,15.85
2023-06-30T13:32:41.448Z,17.05
2023-06-30T13:35:08.795Z,18.13
2023-06-30T13:37:35.361Z,16.45
2023-06-30T13:40:01.969Z,18.35
2023-06-30T13:42:29.716Z,16.02
2023-06-30T13:44:56.224Z,19.50
2023-06-30T13:47:22.726Z,23.88
2023-06-30T13:49:49.242Z,23.13
2023-06-30T13:52:15.731Z,28.50
2023-06-30T13:54:43.159Z,26.27
2023-06-30T13:57:09.690Z,26.40
2023-06-30T13:59:36.327Z,28.33
2023-06-30T14:02:02.935Z,29.75
2023-06-30T14:04:29.621Z,29.73
2023-06-30T14:06:56.223Z,28.83
2023-06-30T14:09:22.733Z,27.20
2023-06-30T14:11:49.235Z,27.05
2023-06-30T14:14:15.785Z,27.45
2023-06-30T14:16:43.195Z,28.13
2023-06-30T14:19:09.827Z,27.23
2023-06-30T14:21:36.318Z,27.58
2023-06-30T14:24:03.202Z,26.67
2023-06-30T14:26:30.819Z,28.60
2023-06-30T14:28:57.634Z,26.08
2023-06-30T14:31:24.340Z,28.05
2023-06-30T14:33:50.965Z,28.65
2023-06-30T14:36:17.537Z,26.45
2023-06-30T14:38:44.551Z,29.95
2023-06-30T14:41:11.220Z,26.10
2023-06-30T14:43:37.991Z,24.45
2023-06-30T14:46:04.606Z,23.38
2023-06-30T14:48:31.281Z,24.80
2023-06-30T14:50:57.806Z,23.60
2023-06-30T14:53:24.726Z,22.60
2023-06-30T14:55:51.296Z,22.30
2023-06-30T14:58:17.805Z,22.88
2023-06-30T15:00:44.310Z,21.23
2023-06-30T15:05:37.627Z,22.98
2023-06-30T15:08:04.626Z,21.50
2023-06-30T15:10:31.141Z,22.10
2023-06-30T15:15:24.044Z,22.00
2023-06-30T15:20:17.554Z,20.50
2023-06-30T15:22:44.197Z,23.00
2023-06-30T15:25:25.866Z,21.88
2023-06-30T15:27:52.473Z,21.27
2023-06-30T15:30:19.338Z,20.55
2023-06-30T15:32:46.059Z,21.83
2023-06-30T15:35:12.911Z,21.60
2023-06-30T15:37:39.845Z,22.98
2023-06-30T15:40:07.145Z,21.23
2023-06-30T15:42:33.815Z,21.38
2023-06-30T15:45:01.037Z,22.33
2023-06-30T15:47:27.796Z,24.05
2023-06-30T15:49:54.307Z,25.50
2023-06-30T15:52:20.853Z,23.80
2023-06-30T15:55:05.258Z,25.73
2023-06-30T15:57:31.804Z,25.08
2023-06-30T15:59:58.298Z,26.25
2023-06-30T16:02:24.900Z,24.30
2023-06-30T16:04:51.623Z,22.67
2023-06-30T16:07:18.176Z,25.88
2023-06-30T16:09:44.680Z,25.30
2023-06-30T16:12:11.358Z,23.52
2023-06-30T16:14:37.887Z,23.40
2023-06-30T16:17:04.716Z,24.85
2023-06-30T16:19:31.230Z,25.67
2023-06-30T16:21:57.798Z,25.10
2023-06-30T16:24:24.331Z,23.63
2023-06-30T16:26:50.854Z,23.75
2023-06-30T16:29:17.352Z,26.25
2023-06-30T16:31:43.894Z,26.08
2023-06-30T16:36:38.643Z,26.95
2023-06-30T16:39:07.238Z,26.35
2023-06-30T16:44:00.174Z,32.05
2023-06-30T16:46:27.509Z,32.75
2023-06-30T16:48:54.079Z,34.58
2023-06-30T16:53:47.072Z,36.70
2023-06-30T16:58:40.010Z,33.67
2023-06-30T17:03:33.156Z,32.05
2023-06-30T17:05:59.715Z,34.38
2023-06-30T17:10:52.674Z,33.08
2023-06-30T17:15:45.892Z,33.33
2023-06-30T17:18:12.712Z,35.92
2023-06-30T17:20:39.382Z,34.13
2023-06-30T17:25:33.896Z,36.03
2023-06-30T17:28:00.451Z,33.42
2023-06-30T17:30:28.211Z,33.03
2023-06-30T17:32:54.728Z,34.45
2023-06-30T17:37:47.797Z,34.67
2023-06-30T17:42:41.242Z,34.50
2023-06-30T17:45:07.903Z,34.90
2023-06-30T17:47:34.453Z,34.95
2023-06-30T17:50:01.208Z,34.83
2023-06-30T17:52:27.808Z,35.90
2023-06-30T17:57:20.779Z,35.33
2023-06-30T18:02:13.754Z,32.90
2023-06-30T18:07:12.430Z,33.55
2023-06-30T18:09:41.088Z,32.20
2023-06-30T18:12:08.858Z,33.13
2023-06-30T18:14:36.977Z,30.85
2023-06-30T18:17:04.195Z,31.48
2023-06-30T18:19:31.913Z,31.35
2023-06-30T18:21:58.734Z,31.10
2023-06-30T18:24:25.601Z,30.92
2023-06-30T18:26:52.238Z,30.63
2023-06-30T18:29:22.825Z,30.65
2023-06-30T18:31:50.352Z,31.75
2023-06-30T18:34:16.953Z,31.60
2023-06-30T18:39:10.375Z,30.52
2023-06-30T18:41:37.018Z,27.55
2023-06-30T18:44:04.243Z,28.88
2023-06-30T18:46:30.902Z,28.63
2023-06-30T18:48:57.987Z,28.63
2023-06-30T18:51:28.456Z,27.92
2023-06-30T18:53:55.433Z,27.50
2023-06-30T18:56:23.859Z,28.23
2023-06-30T18:58:55.352Z,29.67
2023-06-30T19:01:22.052Z,28.20
2023-06-30T19:03:51.025Z,31.00
2023-06-30T19:06:19.866Z,28.35
2023-06-30T19:08:46.527Z,29.65
2023-06-30T19:11:13.508Z,30.00
2023-06-30T19:13:40.035Z,28.45
2023-06-30T19:18:33.404Z,29.00
2023-06-30T19:21:00.076Z,27.88
2023-06-30T19:23:27.307Z,28.63
2023-06-30T19:28:20.820Z,27.88
2023-06-30T19:30:47.710Z,27.50
2023-06-30T19:33:14.558Z,29.20
2023-06-30T19:35:41.283Z,28.63
2023-06-30T19:38:07.830Z,28.95
2023-06-30T19:43:00.736Z,26.33
2023-06-30T19:47:53.772Z,26.65
2023-06-30T19:52:51.629Z,28.25
2023-06-30T19:55:19.895Z,28.25
2023-06-30T19:57:47.287Z,27.52
2023-06-30T20:00:14.193Z,28.38
2023-06-30T20:02:43.245Z,27.05
2023-06-30T20:05:10.041Z,25.67
2023-06-30T20:07:36.695Z,27.75
2023-06-30T20:10:03.315Z,28.00
2023-06-30T20:14:57.326Z,27.48
2023-06-30T20:17:24.358Z,26.77
2023-06-30T20:19:50.978Z,25.33
2023-06-30T20:24:44.028Z,27.40
2023-06-30T20:27:10.647Z,27.60
2023-06-30T20:32:04.007Z,24.48
2023-06-30T20:34:31.681Z,25.15
2023-06-30T20:36:58.189Z,27.73
2023-06-30T20:41:51.206Z,26.73
2023-06-30T20:46:44.245Z,25.45
2023-06-30T20:51:37.234Z,23.92
2023-06-30T20:56:31.435Z,23.58
2023-06-30T20:58:58.153Z,25.17
2023-06-30T21:01:24.750Z,25.75
2023-06-30T21:06:18.999Z,25.83
2023-06-30T21:08:46.735Z,23.92
2023-06-30T21:11:14.167Z,24.08
2023-06-30T21:13:40.867Z,25.20
2023-06-30T21:16:08.173Z,24.08
2023-06-30T21:18:34.906Z,23.92
2023-06-30T21:21:02.394Z,23.13
2023-06-30T21:23:28.930Z,22.98
2023-06-30T21:28:21.912Z,23.08
2023-06-30T21:30:48.630Z,22.40
2023-06-30T21:33:15.671Z,23.20
2023-06-30T21:35:42.224Z,24.80
2023-06-30T21:40:35.201Z,20.50
2023-06-30T21:45:28.171Z,21.95
2023-06-30T21:50:22.557Z,20.80
2023-06-30T21:52:49.121Z,20.70
2023-06-30T21:55:15.816Z,20.13
2023-06-30T21:57:42.355Z,18.27
2023-06-30T22:17:25.962Z,21.10
2023-06-30T22:19:52.668Z,20.45
2023-06-30T22:24:45.693Z,19.85
2023-06-30T22:27:12.496Z,21.02
2023-06-30T22:29:39.122Z,19.65
2023-06-30T22:32:06.241Z,19.40
2023-06-30T22:34:32.868Z,20.95
2023-06-30T22:36:59.456Z,18.88
2023-06-30T22:41:52.554Z,18.05
2023-06-30T22:46:45.787Z,17.52
2023-06-30T22:49:12.455Z,18.40
2023-06-30T22:54:05.562Z,17.70
2023-06-30T22:58:58.704Z,17.75
2023-06-30T23:03:51.989Z,16.73
2023-06-30T23:06:18.524Z,18.23
2023-06-30T23:11:11.671Z,16.75
2023-06-30T23:13:38.309Z,16.67
2023-06-30T23:18:38.399Z,16.93
2023-06-30T23:21:10.356Z,16.08
2023-06-30T23:23:41.708Z,16.83
2023-06-30T23:26:11.253Z,15.32
2023-06-30T23:31:20.716Z,15.40
2023-06-30T23:33:51.371Z,15.90
2023-06-30T23:36:18.274Z,15.20
2023-06-30T23:38:44.927Z,14.00
2023-06-30T23:41:12.699Z,13.82
2023-06-30T23:43:39.259Z,15.05
2023-06-30T23:48:32.302Z,14.18
2023-06-30T23:53:25.364Z,12.82
2023-06-30T23:58:18.473Z,13.80
